createdAt,value
2018-07-17T00:01:53.975Z,7.28
2018-07-17T00:04:22.236Z,6.22
2018-07-17T00:06:50.612Z,7.03
2018-07-17T00:09:18.840Z,6.90
2018-07-17T00:11:47.076Z,7.53
2018-07-17T00:14:15.305Z,7.47
2018-07-17T00:16:43.719Z,7.08
2018-07-17T00:19:11.948Z,7.25
2018-07-17T00:21:40.225Z,6.62
2018-07-17T00:24:08.816Z,6.85
2018-07-17T00:26:37.022Z,6.87
2018-07-17T00:29:05.252Z,7.20
2018-07-17T00:31:33.430Z,7.25
2018-07-17T00:34:01.945Z,6.72
2018-07-17T00:36:30.162Z,6.95
2018-07-17T00:38:58.569Z,7.33
2018-07-17T00:41:27.055Z,7.28
2018-07-17T00:43:55.229Z,6.80
2018-07-17T00:46:23.417Z,6.60
2018-07-17T00:48:51.677Z,6.42
2018-07-17T00:51:19.998Z,6.85
2018-07-17T00:53:48.225Z,6.72
2018-07-17T00:56:16.502Z,7.25
2018-07-17T00:58:44.715Z,6.87
2018-07-17T01:01:18.281Z,6.80
2018-07-17T01:03:51.949Z,6.80
2018-07-17T01:06:25.513Z,6.90
2018-07-17T01:09:00.529Z,6.92
2018-07-17T01:11:34.076Z,7.25
2018-07-17T01:14:07.089Z,6.92
2018-07-17T01:16:35.302Z,8.60
2018-07-17T01:19:03.762Z,6.53
2018-07-17T01:21:32.059Z,7.08
2018-07-17T01:24:00.276Z,7.00
2018-07-17T01:26:28.593Z,7.67
2018-07-17T01:28:56.845Z,7.15
2018-07-17T01:31:25.041Z,6.53
2018-07-17T01:33:53.421Z,6.42
2018-07-17T01:36:21.965Z,7.33
2018-07-17T01:38:50.388Z,5.85
2018-07-17T01:41:18.612Z,7.00
2018-07-17T01:43:46.938Z,6.80
2018-07-17T01:46:15.547Z,6.33
2018-07-17T01:48:43.748Z,6.85
2018-07-17T01:51:12.165Z,6.30
2018-07-17T01:53:40.353Z,7.90
2018-07-17T01:56:08.540Z,6.42
2018-07-17T01:58:36.726Z,7.00
2018-07-17T02:01:04.953Z,6.90
2018-07-17T02:03:33.170Z,7.35
2018-07-17T02:06:01.350Z,6.60
2018-07-17T02:08:29.962Z,6.50
2018-07-17T02:10:58.164Z,6.42
2018-07-17T02:13:26.367Z,7.00
2018-07-17T02:15:54.857Z,7.00
2018-07-17T02:18:23.217Z,6.53
2018-07-17T02:20:51.417Z,7.25
2018-07-17T02:23:19.637Z,7.05
2018-07-17T02:25:48.046Z,6.87
2018-07-17T02:28:16.560Z,6.90
2018-07-17T02:30:44.762Z,7.08
2018-07-17T02:33:13.025Z,7.25
2018-07-17T02:35:41.561Z,6.60
2018-07-17T02:38:09.754Z,7.12
2018-07-17T02:40:38.991Z,7.33
2018-07-17T02:43:07.186Z,6.28
2018-07-17T02:45:35.377Z,6.53
2018-07-17T02:48:03.590Z,6.33
2018-07-17T02:50:31.798Z,6.67
2018-07-17T02:53:00.362Z,7.20
2018-07-17T02:55:28.553Z,7.42
2018-07-17T02:57:56.754Z,6.67
2018-07-17T03:00:24.945Z,7.25
2018-07-17T03:02:53.149Z,7.55
2018-07-17T03:05:22.025Z,6.60
2018-07-17T03:07:50.221Z,6.78
2018-07-17T03:10:18.418Z,6.33
2018-07-17T03:12:46.790Z,7.10
2018-07-17T03:15:15.196Z,6.30
2018-07-17T03:17:43.549Z,6.42
2018-07-17T03:20:11.757Z,6.60
2018-07-17T03:22:40.454Z,7.33
2018-07-17T03:25:08.635Z,7.33
2018-07-17T03:27:37.007Z,7.03
2018-07-17T03:30:06.378Z,6.97
2018-07-17T03:32:34.576Z,6.87
2018-07-17T03:35:03.066Z,6.45
2018-07-17T03:37:31.341Z,5.95
2018-07-17T03:39:59.527Z,6.90
2018-07-17T03:42:27.981Z,6.60
2018-07-17T03:44:56.189Z,7.20
2018-07-17T03:47:24.442Z,6.17
2018-07-17T03:49:52.629Z,6.95
2018-07-17T03:52:20.861Z,7.35
2018-07-17T03:54:49.689Z,5.65
2018-07-17T03:57:17.953Z,6.30
2018-07-17T03:59:46.565Z,6.30
2018-07-17T04:02:14.933Z,6.03
2018-07-17T04:04:43.492Z,6.85
2018-07-17T04:07:11.894Z,6.40
2018-07-17T04:09:40.071Z,5.87
2018-07-17T04:12:08.417Z,6.03
2018-07-17T04:14:37.126Z,5.62
2018-07-17T04:17:05.342Z,7.00
2018-07-17T04:19:33.545Z,6.35
2018-07-17T04:22:02.292Z,5.92
2018-07-17T04:24:30.641Z,5.30
2018-07-17T04:26:58.853Z,5.85
2018-07-17T04:29:27.038Z,5.75
2018-07-17T04:31:55.281Z,5.47
2018-07-17T04:34:23.749Z,5.40
2018-07-17T04:36:51.969Z,5.65
2018-07-17T04:39:20.169Z,6.05
2018-07-17T04:41:48.576Z,4.95
2018-07-17T04:44:16.908Z,5.55
2018-07-17T04:46:45.138Z,6.00
2018-07-17T04:49:13.356Z,5.22
2018-07-17T04:51:41.590Z,5.50
2018-07-17T04:54:09.802Z,5.97
2018-07-17T04:56:38.007Z,4.37
2018-07-17T04:59:06.189Z,5.55
2018-07-17T05:01:34.391Z,5.92
2018-07-17T05:04:02.601Z,6.42
2018-07-17T05:06:30.957Z,5.35
2018-07-17T05:08:59.161Z,6.00
2018-07-17T05:11:27.565Z,5.85
2018-07-17T05:13:55.765Z,5.40
2018-07-17T05:16:23.993Z,6.35
2018-07-17T05:18:52.230Z,6.58
2018-07-17T05:21:20.597Z,5.72
2018-07-17T05:23:48.802Z,5.25
2018-07-17T05:26:17.142Z,6.25
2018-07-17T05:28:45.345Z,5.45
2018-07-17T05:31:13.601Z,5.05
2018-07-17T05:33:41.801Z,6.22
2018-07-17T05:36:10.257Z,5.75
2018-07-17T05:38:38.524Z,5.70
2018-07-17T05:41:06.728Z,5.80
2018-07-17T05:43:34.928Z,6.03
2018-07-17T05:46:03.153Z,5.33
2018-07-17T05:48:31.978Z,6.25
2018-07-17T05:51:00.622Z,6.45
2018-07-17T05:53:28.848Z,6.92
2018-07-17T05:55:57.277Z,6.70
2018-07-17T05:58:25.462Z,5.92
2018-07-17T06:00:53.829Z,6.15
2018-07-17T06:03:22.031Z,6.72
2018-07-17T06:05:50.819Z,6.53
2018-07-17T06:08:19.021Z,6.40
2018-07-17T06:10:47.758Z,6.35
2018-07-17T06:13:16.037Z,6.45
2018-07-17T06:15:44.226Z,6.30
2018-07-17T06:18:12.425Z,6.37
2018-07-17T06:20:40.891Z,6.40
2018-07-17T06:23:09.155Z,5.85
2018-07-17T06:25:37.343Z,6.20
2018-07-17T06:28:05.538Z,6.28
2018-07-17T06:30:33.734Z,6.67
2018-07-17T06:33:01.980Z,6.58
2018-07-17T06:35:30.378Z,5.92
2018-07-17T06:37:58.566Z,7.50
2018-07-17T06:40:27.123Z,6.03
2018-07-17T06:42:55.461Z,6.62
2018-07-17T06:45:24.034Z,6.35
2018-07-17T06:47:52.725Z,5.80
2018-07-17T06:50:21.028Z,5.78
2018-07-17T06:52:49.197Z,7.30
2018-07-17T06:55:17.465Z,6.50
2018-07-17T06:57:45.897Z,6.20
2018-07-17T07:00:14.115Z,6.10
2018-07-17T07:02:42.324Z,6.70
2018-07-17T07:05:10.655Z,6.22
2018-07-17T07:07:38.837Z,6.17
2018-07-17T07:10:07.048Z,5.80
2018-07-17T07:12:35.259Z,6.67
2018-07-17T07:15:03.491Z,6.75
2018-07-17T07:17:31.757Z,6.90
2018-07-17T07:19:59.951Z,6.53
2018-07-17T07:22:28.209Z,5.90
2018-07-17T07:24:57.689Z,6.57
2018-07-17T07:27:26.376Z,6.97
2018-07-17T07:29:54.582Z,6.40
2018-07-17T07:32:23.262Z,6.40
2018-07-17T07:34:51.457Z,6.47
2018-07-17T07:37:19.957Z,7.10
2018-07-17T07:39:48.161Z,6.23
2018-07-17T07:42:16.442Z,6.60
2018-07-17T07:44:44.626Z,5.57
2018-07-17T07:47:12.847Z,5.63
2018-07-17T07:49:41.301Z,6.93
2018-07-17T07:52:09.521Z,5.93
2018-07-17T07:54:37.713Z,5.60
2018-07-17T07:57:06.105Z,5.57
2018-07-17T07:59:34.329Z,5.73
2018-07-17T08:02:02.526Z,5.50
2018-07-17T08:04:30.932Z,6.13
2018-07-17T08:06:59.545Z,6.50
2018-07-17T08:09:27.749Z,6.57
2018-07-17T08:11:56.348Z,6.00
2018-07-17T08:14:24.397Z,7.03
2018-07-17T08:16:52.586Z,6.40
2018-07-17T08:19:21.002Z,5.90
2018-07-17T08:21:49.269Z,7.23
2018-07-17T08:24:17.942Z,6.60
2018-07-17T08:26:46.314Z,5.67
2018-07-17T08:29:14.746Z,6.40
2018-07-17T08:31:42.942Z,6.00
2018-07-17T08:34:11.470Z,6.33
2018-07-17T08:36:39.670Z,6.83
2018-07-17T08:39:09.263Z,6.53
2018-07-17T08:41:37.868Z,6.27
2018-07-17T08:44:06.097Z,6.33
2018-07-17T08:46:34.906Z,6.40
2018-07-17T08:49:03.167Z,6.30
2018-07-17T08:51:31.453Z,5.60
2018-07-17T08:53:59.687Z,6.90
2018-07-17T08:56:27.865Z,6.67
2018-07-17T08:58:56.629Z,5.90
2018-07-17T09:01:24.848Z,5.73
2018-07-17T09:03:53.058Z,6.70
2018-07-17T09:06:21.526Z,6.30
2018-07-17T09:08:50.039Z,6.27
2018-07-17T09:11:18.490Z,6.63
2018-07-17T09:13:46.783Z,6.33
2018-07-17T09:16:15.376Z,6.63
2018-07-17T09:18:43.586Z,6.47
2018-07-17T09:21:12.008Z,6.50
2018-07-17T09:23:40.213Z,6.80
2018-07-17T09:26:08.465Z,6.40
2018-07-17T09:28:36.698Z,6.53
2018-07-17T09:31:04.906Z,6.13
2018-07-17T09:33:33.788Z,6.10
2018-07-17T09:36:01.978Z,6.90
2018-07-17T09:38:30.591Z,6.13
2018-07-17T09:40:58.832Z,7.00
2018-07-17T09:43:27.058Z,6.13
2018-07-17T09:45:55.470Z,6.30
2018-07-17T09:48:23.710Z,6.60
2018-07-17T09:50:51.957Z,5.93
2018-07-17T09:53:20.481Z,6.47
2018-07-17T09:55:48.682Z,6.47
2018-07-17T09:58:16.883Z,5.93
2018-07-17T10:00:50.410Z,6.97
2018-07-17T10:03:18.892Z,6.63
2018-07-17T10:05:47.169Z,6.17
2018-07-17T10:08:15.444Z,6.13
2018-07-17T10:10:43.704Z,6.13
2018-07-17T10:13:12.062Z,6.73
2018-07-17T10:15:40.317Z,6.20
2018-07-17T10:18:08.605Z,6.50
2018-07-17T10:20:36.851Z,5.57
2018-07-17T10:23:05.118Z,7.50
2018-07-17T10:25:33.400Z,5.93
2018-07-17T10:28:01.645Z,6.40
2018-07-17T10:30:29.925Z,6.47
2018-07-17T10:32:58.172Z,6.30
2018-07-17T10:35:26.421Z,6.27
2018-07-17T10:37:54.829Z,6.00
2018-07-17T10:40:23.076Z,6.07
2018-07-17T10:42:51.325Z,6.03
2018-07-17T10:45:20.007Z,5.63
2018-07-17T10:47:48.333Z,5.57
2018-07-17T10:50:16.588Z,5.80
2018-07-17T10:52:44.840Z,5.47
2018-07-17T10:55:13.104Z,5.67
2018-07-17T10:57:41.356Z,6.57
2018-07-17T11:00:09.697Z,5.50
2018-07-17T11:02:37.946Z,6.53
2018-07-17T11:05:06.249Z,6.60
2018-07-17T11:07:34.505Z,6.10
2018-07-17T11:10:02.765Z,6.90
2018-07-17T11:12:31.056Z,5.73
2018-07-17T11:14:59.323Z,6.13
2018-07-17T11:17:27.609Z,6.03
2018-07-17T11:19:56.264Z,6.50
2018-07-17T11:22:25.305Z,5.00
2018-07-17T11:24:53.585Z,6.40
2018-07-17T11:27:21.840Z,5.17
2018-07-17T11:29:50.131Z,5.93
2018-07-17T11:32:18.537Z,5.80
2018-07-17T11:34:46.817Z,5.20
2018-07-17T11:37:15.193Z,5.80
2018-07-17T11:39:43.769Z,5.57
2018-07-17T11:42:12.029Z,4.90
2018-07-17T11:44:40.294Z,5.47
2018-07-17T11:47:08.538Z,5.40
2018-07-17T11:49:36.828Z,4.90
2018-07-17T11:52:05.113Z,4.77
2018-07-17T11:54:33.781Z,5.47
2018-07-17T11:57:02.406Z,5.60
2018-07-17T11:59:30.718Z,6.23
2018-07-17T12:01:58.954Z,5.27
2018-07-17T12:04:27.877Z,5.23
2018-07-17T12:06:56.125Z,4.97
2018-07-17T12:09:24.373Z,4.77
2018-07-17T12:11:52.644Z,5.83
2018-07-17T12:14:21.163Z,4.70
2018-07-17T12:16:49.413Z,6.10
2018-07-17T12:19:17.665Z,4.93
2018-07-17T12:21:45.938Z,4.80
2018-07-17T12:24:14.194Z,4.73
2018-07-17T12:26:42.617Z,4.77
2018-07-17T12:29:11.302Z,4.50
2018-07-17T12:31:39.589Z,5.23
2018-07-17T12:34:07.965Z,4.80
2018-07-17T12:36:36.254Z,4.90
2018-07-17T12:39:06.038Z,4.70
2018-07-17T12:41:34.280Z,4.50
2018-07-17T12:44:02.511Z,4.20
2018-07-17T12:46:30.912Z,4.37
2018-07-17T12:48:59.517Z,5.20
2018-07-17T12:51:27.723Z,5.23
2018-07-17T12:53:55.974Z,5.00
2018-07-17T12:56:24.247Z,4.43
2018-07-17T12:58:52.471Z,4.87
2018-07-17T13:01:20.706Z,4.60
2018-07-17T13:03:48.910Z,5.00
2018-07-17T13:06:17.373Z,5.00
2018-07-17T13:08:45.731Z,4.30
2018-07-17T13:11:13.942Z,4.60
2018-07-17T13:13:42.150Z,4.83
2018-07-17T13:16:10.370Z,4.40
2018-07-17T13:18:38.709Z,3.97
2018-07-17T13:21:06.937Z,4.53
2018-07-17T13:23:35.735Z,4.20
2018-07-17T13:26:03.966Z,3.83
2018-07-17T13:28:32.254Z,4.20
2018-07-17T13:31:00.496Z,4.03
2018-07-17T13:33:28.699Z,4.00
2018-07-17T13:35:57.173Z,4.47
2018-07-17T13:38:25.418Z,4.37
2018-07-17T13:40:54.141Z,3.33
2018-07-17T13:43:22.367Z,3.57
2018-07-17T13:45:50.599Z,3.40
2018-07-17T13:48:18.798Z,4.10
2018-07-17T13:50:47.020Z,4.53
2018-07-17T13:53:15.502Z,4.40
2018-07-17T13:55:43.705Z,4.20
2018-07-17T13:58:11.924Z,5.73
2018-07-17T14:00:40.354Z,5.17
2018-07-17T14:03:08.562Z,5.17
2018-07-17T14:05:36.779Z,5.60
2018-07-17T14:08:05.350Z,4.87
2018-07-17T14:10:33.678Z,5.50
2018-07-17T14:13:02.202Z,5.03
2018-07-17T14:15:30.406Z,4.87
2018-07-17T14:17:58.762Z,4.70
2018-07-17T14:20:26.977Z,4.30
2018-07-17T14:22:55.257Z,4.40
2018-07-17T14:25:23.458Z,4.53
2018-07-17T14:27:51.655Z,4.20
2018-07-17T14:30:20.542Z,4.50
2018-07-17T14:32:49.546Z,4.83
2018-07-17T14:35:17.802Z,5.30
2018-07-17T14:37:46.017Z,5.07
2018-07-17T14:40:14.254Z,4.80
2018-07-17T14:42:42.978Z,4.87
2018-07-17T14:45:11.202Z,4.63
2018-07-17T14:47:39.782Z,4.50
2018-07-17T14:50:08.294Z,4.87
2018-07-17T14:52:36.518Z,4.80
2018-07-17T14:55:05.619Z,4.60
2018-07-17T14:57:33.846Z,4.60
2018-07-17T15:00:02.079Z,4.97
2018-07-17T15:02:30.546Z,3.80
2018-07-17T15:04:59.146Z,3.67
2018-07-17T15:07:27.341Z,3.77
2018-07-17T15:09:55.864Z,4.23
2018-07-17T15:12:24.019Z,3.30
2018-07-17T15:14:52.313Z,4.00
2018-07-17T15:17:20.510Z,3.70
2018-07-17T15:19:48.712Z,4.47
2018-07-17T15:22:17.297Z,4.77
2018-07-17T15:24:45.766Z,4.47
2018-07-17T15:27:13.982Z,4.40
2018-07-17T15:29:42.221Z,4.27
2018-07-17T15:32:10.448Z,4.07
2018-07-17T15:34:38.684Z,4.50
2018-07-17T15:37:06.927Z,6.00
2018-07-17T15:39:35.291Z,4.90
2018-07-17T15:42:03.523Z,5.10
2018-07-17T15:44:32.156Z,5.07
2018-07-17T15:47:00.358Z,5.30
2018-07-17T15:49:28.562Z,6.13
2018-07-17T15:51:56.989Z,5.60
2018-07-17T15:54:25.197Z,5.67
2018-07-17T15:56:53.775Z,5.03
2018-07-17T15:59:22.143Z,5.60
2018-07-17T16:01:50.419Z,5.27
2018-07-17T16:04:18.621Z,5.43
2018-07-17T16:06:47.454Z,5.90
2018-07-17T16:09:15.650Z,5.30
2018-07-17T16:11:43.862Z,6.03
2018-07-17T16:14:13.418Z,5.90
2018-07-17T16:16:41.305Z,6.40
2018-07-17T16:19:09.510Z,5.53
2018-07-17T16:21:37.754Z,5.10
2018-07-17T16:24:05.991Z,5.30
2018-07-17T16:26:34.265Z,5.50
2018-07-17T16:29:02.477Z,5.53
2018-07-17T16:31:31.286Z,5.17
2018-07-17T16:33:59.638Z,4.63
2018-07-17T16:36:27.868Z,5.30
2018-07-17T16:38:56.274Z,4.50
2018-07-17T16:41:24.710Z,5.47
2018-07-17T16:43:53.150Z,5.20
2018-07-17T16:46:21.370Z,5.33
2018-07-17T16:48:49.734Z,5.00
2018-07-17T16:51:17.997Z,5.60
2018-07-17T16:53:46.236Z,4.90
2018-07-17T16:56:14.795Z,5.03
2018-07-17T16:58:43.466Z,5.47
2018-07-17T17:01:11.935Z,5.70
2018-07-17T17:03:40.599Z,5.50
2018-07-17T17:06:08.851Z,5.07
2018-07-17T17:08:37.984Z,5.83
2018-07-17T17:11:06.762Z,4.77
2018-07-17T17:13:35.767Z,5.73
2018-07-17T17:16:04.060Z,5.87
2018-07-17T17:18:32.737Z,6.10
2018-07-17T17:21:01.361Z,5.53
2018-07-17T17:23:29.830Z,6.13
2018-07-17T17:25:58.376Z,5.93
2018-07-17T17:28:27.046Z,5.93
2018-07-17T17:30:55.319Z,5.80
2018-07-17T17:33:23.934Z,6.50
2018-07-17T17:35:52.189Z,6.73
2018-07-17T17:38:20.462Z,6.70
2018-07-17T17:40:49.299Z,6.77
2018-07-17T17:43:17.938Z,7.47
2018-07-17T17:45:46.550Z,6.97
2018-07-17T17:48:14.887Z,6.57
2018-07-17T17:50:43.116Z,6.60
2018-07-17T17:53:11.334Z,6.40
2018-07-17T17:55:39.576Z,7.63
2018-07-17T17:58:08.095Z,6.40
2018-07-17T18:00:36.687Z,6.80
2018-07-17T18:03:05.378Z,7.40
2018-07-17T18:05:33.656Z,7.00
2018-07-17T18:08:01.932Z,7.17
2018-07-17T18:10:30.218Z,7.33
2018-07-17T18:12:58.891Z,7.07
2018-07-17T18:15:27.911Z,6.50
2018-07-17T18:17:56.262Z,6.73
2018-07-17T18:20:24.481Z,7.00
2018-07-17T18:22:52.694Z,6.80
2018-07-17T18:25:20.906Z,6.07
2018-07-17T18:27:49.114Z,7.30
2018-07-17T18:30:17.642Z,6.60
2018-07-17T18:32:45.882Z,6.47
2018-07-17T18:35:14.117Z,6.87
2018-07-17T18:37:42.329Z,7.00
2018-07-17T18:40:11.079Z,6.60
2018-07-17T18:42:39.452Z,6.77
2018-07-17T18:45:07.938Z,7.23
2018-07-17T18:47:36.444Z,6.47
2018-07-17T18:50:12.859Z,7.53
2018-07-17T18:52:33.409Z,6.83
2018-07-17T18:55:01.616Z,8.03
2018-07-17T18:57:29.916Z,7.73
2018-07-17T18:59:58.119Z,6.27
2018-07-17T19:02:26.334Z,7.50
2018-07-17T19:04:54.538Z,7.20
2018-07-17T19:07:23.422Z,8.07
2018-07-17T19:09:51.856Z,6.63
2018-07-17T19:12:20.107Z,8.53
2018-07-17T19:14:48.330Z,6.23
2018-07-17T19:17:16.563Z,7.60
2018-07-17T19:19:44.781Z,7.13
2018-07-17T19:22:13.092Z,7.37
2018-07-17T19:24:41.694Z,6.97
2018-07-17T19:27:10.386Z,7.07
2018-07-17T19:29:38.610Z,6.83
2018-07-17T19:32:07.010Z,8.10
2018-07-17T19:34:35.234Z,6.77
2018-07-17T19:37:03.466Z,7.20
2018-07-17T19:39:31.845Z,7.90
2018-07-17T19:42:00.119Z,7.40
2018-07-17T19:44:28.490Z,6.60
2018-07-17T19:46:57.087Z,7.92
2018-07-17T19:49:25.846Z,7.03
2018-07-17T19:51:54.282Z,7.42
2018-07-17T19:54:22.514Z,6.78
2018-07-17T19:56:51.006Z,7.25
2018-07-17T19:59:19.286Z,7.72
2018-07-17T20:01:47.577Z,7.60
2018-07-17T20:04:15.798Z,7.65
2018-07-17T20:06:44.039Z,7.72
2018-07-17T20:09:12.387Z,7.40
2018-07-17T20:11:41.092Z,7.12
2018-07-17T20:14:09.766Z,8.13
2018-07-17T20:16:38.034Z,7.25
2018-07-17T20:19:06.642Z,7.97
2018-07-17T20:21:34.858Z,7.55
2018-07-17T20:24:03.103Z,8.13
2018-07-17T20:26:31.324Z,7.92
2018-07-17T20:28:59.550Z,8.65
2018-07-17T20:31:27.951Z,8.08
2018-07-17T20:33:56.150Z,8.03
2018-07-17T20:36:24.622Z,7.80
2018-07-17T20:38:52.934Z,7.53
2018-07-17T20:41:21.172Z,8.30
2018-07-17T20:43:49.924Z,7.65
2018-07-17T20:46:18.158Z,7.20
2018-07-17T20:48:46.451Z,7.28
2018-07-17T20:51:14.701Z,7.28
2018-07-17T20:53:43.064Z,7.65
2018-07-17T20:56:11.294Z,8.58
2018-07-17T20:58:39.567Z,8.03
2018-07-17T21:01:08.290Z,7.15
2018-07-17T21:03:36.553Z,8.28
2018-07-17T21:06:05.377Z,8.85
2018-07-17T21:08:33.945Z,9.43
2018-07-17T21:11:02.548Z,7.55
2018-07-17T21:13:30.901Z,7.62
2018-07-17T21:15:59.673Z,8.63
2018-07-17T21:18:27.945Z,8.08
2018-07-17T21:20:56.526Z,6.92
2018-07-17T21:23:24.777Z,8.55
2018-07-17T21:25:53.097Z,8.60
2018-07-17T21:28:21.713Z,7.40
2018-07-17T21:30:49.969Z,7.80
2018-07-17T21:33:18.234Z,7.58
2018-07-17T21:35:46.497Z,8.53
2018-07-17T21:38:14.801Z,8.05
2018-07-17T21:40:43.171Z,7.87
2018-07-17T21:43:11.449Z,8.08
2018-07-17T21:45:40.168Z,8.20
2018-07-17T21:48:08.693Z,8.38
2018-07-17T21:50:37.090Z,8.00
2018-07-17T21:53:05.369Z,8.33
2018-07-17T21:55:34.057Z,8.45
2018-07-17T21:58:02.341Z,8.68
2018-07-17T22:00:31.017Z,8.30
2018-07-17T22:02:59.325Z,8.53
2018-07-17T22:05:27.575Z,9.28
2018-07-17T22:07:55.882Z,8.60
2018-07-17T22:10:24.188Z,8.30
2018-07-17T22:12:52.483Z,9.45
2018-07-17T22:15:20.755Z,9.00
2018-07-17T22:17:49.305Z,8.80
2018-07-17T22:20:17.693Z,9.28
2018-07-17T22:22:45.949Z,8.60
2018-07-17T22:25:14.609Z,8.60
2018-07-17T22:27:42.882Z,9.08
2018-07-17T22:30:11.158Z,9.35
2018-07-17T22:32:39.453Z,8.28
2018-07-17T22:35:07.841Z,9.50
2018-07-17T22:37:36.144Z,9.20
2018-07-17T22:40:05.079Z,8.30
2018-07-17T22:42:33.362Z,9.30
2018-07-17T22:45:01.617Z,9.40
2018-07-17T22:47:29.909Z,9.05
2018-07-17T22:49:58.163Z,8.20
2018-07-17T22:52:26.415Z,9.18
2018-07-17T22:54:54.702Z,8.90
2018-07-17T22:57:23.021Z,9.38
2018-07-17T22:59:51.277Z,8.48
2018-07-17T23:02:19.569Z,9.33
2018-07-17T23:04:47.853Z,8.98
2018-07-17T23:07:16.138Z,9.03
2018-07-17T23:09:44.407Z,9.75
2018-07-17T23:12:13.149Z,9.45
2018-07-17T23:14:41.429Z,8.23
2018-07-17T23:17:09.702Z,9.70
2018-07-17T23:19:38.197Z,9.43
2018-07-17T23:22:06.720Z,9.65
2018-07-17T23:24:35.186Z,8.83
2018-07-17T23:27:03.972Z,9.73
2018-07-17T23:29:32.391Z,9.50
2018-07-17T23:32:00.645Z,8.80
2018-07-17T23:34:29.219Z,9.08
2018-07-17T23:36:57.478Z,9.43
2018-07-17T23:39:25.745Z,9.70
2018-07-17T23:41:54.024Z,9.68
2018-07-17T23:44:22.345Z,8.83
2018-07-17T23:46:50.625Z,9.50
2018-07-17T23:49:24.202Z,8.83
2018-07-17T23:51:52.478Z,8.40
2018-07-17T23:54:20.803Z,8.95
2018-07-17T23:56:49.445Z,9.90
2018-07-17T23:59:17.794Z,8.40
